sensor_id;sensor_type;location;lat;lon;timestamp;P1;durP1;ratioP1;P2;durP2;ratioP2
22191;SDS011;11261;52.456;10.850;2023-03-21T00:00:52;16.65;;;10.30;;
22191;SDS011;11261;52.456;10.850;2023-03-21T00:03:21;17.50;;;9.65;;
22191;SDS011;11261;52.456;10.850;2023-03-21T00:05:50;15.48;;;9.65;;
22191;SDS011;11261;52.456;10.850;2023-03-21T00:08:19;16.38;;;8.93;;
22191;SDS011;11261;52.456;10.850;2023-03-21T00:10:55;17.10;;;9.38;;
22191;SDS011;11261;52.456;10.850;2023-03-21T00:13:25;15.40;;;9.13;;
22191;SDS011;11261;52.456;10.850;2023-03-21T00:16:02;14.50;;;8.95;;
22191;SDS011;11261;52.456;10.850;2023-03-21T00:18:52;20.70;;;9.27;;
22191;SDS011;11261;52.456;10.850;2023-03-21T00:21:21;14.23;;;8.45;;
22191;SDS011;11261;52.456;10.850;2023-03-21T00:24:13;14.98;;;7.70;;
22191;SDS011;11261;52.456;10.850;2023-03-21T00:26:43;14.50;;;8.52;;
22191;SDS011;11261;52.456;10.850;2023-03-21T00:29:11;19.25;;;9.55;;
22191;SDS011;11261;52.456;10.850;2023-03-21T00:31:40;14.52;;;9.00;;
22191;SDS011;11261;52.456;10.850;2023-03-21T00:34:08;16.85;;;8.63;;
22191;SDS011;11261;52.456;10.850;2023-03-21T00:36:37;16.77;;;9.50;;
22191;SDS011;11261;52.456;10.850;2023-03-21T00:39:06;13.70;;;8.52;;
22191;SDS011;11261;52.456;10.850;2023-03-21T00:41:34;12.32;;;6.90;;
22191;SDS011;11261;52.456;10.850;2023-03-21T00:44:11;19.85;;;9.75;;
22191;SDS011;11261;52.456;10.850;2023-03-21T00:46:41;12.77;;;8.10;;
22191;SDS011;11261;52.456;10.850;2023-03-21T00:49:29;16.00;;;9.35;;
22191;SDS011;11261;52.456;10.850;2023-03-21T00:51:59;13.07;;;7.25;;
22191;SDS011;11261;52.456;10.850;2023-03-21T00:54:43;12.88;;;6.97;;
22191;SDS011;11261;52.456;10.850;2023-03-21T00:57:12;14.55;;;8.52;;
22191;SDS011;11261;52.456;10.850;2023-03-21T00:59:42;16.25;;;9.63;;
22191;SDS011;11261;52.456;10.850;2023-03-21T01:02:10;14.32;;;9.32;;
22191;SDS011;11261;52.456;10.850;2023-03-21T01:04:40;21.65;;;9.25;;
22191;SDS011;11261;52.456;10.850;2023-03-21T01:07:08;16.67;;;8.15;;
22191;SDS011;11261;52.456;10.850;2023-03-21T01:09:37;13.10;;;8.05;;
22191;SDS011;11261;52.456;10.850;2023-03-21T01:12:05;12.60;;;7.35;;
22191;SDS011;11261;52.456;10.850;2023-03-21T01:14:33;13.43;;;8.02;;
22191;SDS011;11261;52.456;10.850;2023-03-21T01:17:03;12.15;;;8.23;;
22191;SDS011;11261;52.456;10.850;2023-03-21T01:19:32;14.20;;;8.82;;
22191;SDS011;11261;52.456;10.850;2023-03-21T01:22:16;17.17;;;8.90;;
22191;SDS011;11261;52.456;10.850;2023-03-21T01:24:44;20.35;;;9.10;;
22191;SDS011;11261;52.456;10.850;2023-03-21T01:27:23;14.38;;;8.45;;
22191;SDS011;11261;52.456;10.850;2023-03-21T01:29:52;12.18;;;6.70;;
22191;SDS011;11261;52.456;10.850;2023-03-21T01:32:21;12.93;;;8.35;;
22191;SDS011;11261;52.456;10.850;2023-03-21T01:34:50;17.35;;;8.90;;
22191;SDS011;11261;52.456;10.850;2023-03-21T01:37:18;15.40;;;8.77;;
22191;SDS011;11261;52.456;10.850;2023-03-21T01:39:46;15.07;;;9.98;;
22191;SDS011;11261;52.456;10.850;2023-03-21T01:42:14;16.08;;;9.50;;
22191;SDS011;11261;52.456;10.850;2023-03-21T01:44:52;12.55;;;7.68;;
22191;SDS011;11261;52.456;10.850;2023-03-21T01:47:23;14.18;;;8.10;;
22191;SDS011;11261;52.456;10.850;2023-03-21T01:49:53;12.98;;;8.43;;
22191;SDS011;11261;52.456;10.850;2023-03-21T01:52:26;13.80;;;8.88;;
22191;SDS011;11261;52.456;10.850;2023-03-21T01:55:04;14.45;;;9.40;;
22191;SDS011;11261;52.456;10.850;2023-03-21T01:57:37;17.02;;;9.02;;
22191;SDS011;11261;52.456;10.850;2023-03-21T02:00:27;16.02;;;9.65;;
22191;SDS011;11261;52.456;10.850;2023-03-21T02:02:58;18.67;;;9.65;;
22191;SDS011;11261;52.456;10.850;2023-03-21T02:05:43;13.20;;;7.80;;
22191;SDS011;11261;52.456;10.850;2023-03-21T02:08:18;15.38;;;9.45;;
22191;SDS011;11261;52.456;10.850;2023-03-21T02:11:03;20.23;;;10.93;;
22191;SDS011;11261;52.456;10.850;2023-03-21T02:13:32;15.32;;;8.95;;
22191;SDS011;11261;52.456;10.850;2023-03-21T02:16:04;15.45;;;8.50;;
22191;SDS011;11261;52.456;10.850;2023-03-21T02:18:44;13.77;;;8.45;;
22191;SDS011;11261;52.456;10.850;2023-03-21T02:24:26;15.68;;;8.43;;
22191;SDS011;11261;52.456;10.850;2023-03-21T02:27:19;15.45;;;9.07;;
22191;SDS011;11261;52.456;10.850;2023-03-21T02:32:59;14.80;;;8.68;;
22191;SDS011;11261;52.456;10.850;2023-03-21T02:35:48;13.13;;;7.90;;
22191;SDS011;11261;52.456;10.850;2023-03-21T02:38:41;13.00;;;7.20;;
22191;SDS011;11261;52.456;10.850;2023-03-21T02:41:15;11.23;;;6.80;;
22191;SDS011;11261;52.456;10.850;2023-03-21T02:43:50;12.00;;;8.25;;
22191;SDS011;11261;52.456;10.850;2023-03-21T02:46:24;17.52;;;9.00;;
22191;SDS011;11261;52.456;10.850;2023-03-21T02:49:11;12.50;;;7.78;;
22191;SDS011;11261;52.456;10.850;2023-03-21T02:51:44;13.57;;;8.80;;
22191;SDS011;11261;52.456;10.850;2023-03-21T02:54:16;15.07;;;8.82;;
22191;SDS011;11261;52.456;10.850;2023-03-21T02:57:00;14.80;;;8.05;;
22191;SDS011;11261;52.456;10.850;2023-03-21T02:59:30;13.95;;;7.75;;
22191;SDS011;11261;52.456;10.850;2023-03-21T03:02:09;12.45;;;8.15;;
22191;SDS011;11261;52.456;10.850;2023-03-21T03:04:39;9.70;;;7.20;;
22191;SDS011;11261;52.456;10.850;2023-03-21T03:07:12;14.57;;;8.07;;
22191;SDS011;11261;52.456;10.850;2023-03-21T03:10:09;12.13;;;6.55;;
22191;SDS011;11261;52.456;10.850;2023-03-21T03:12:53;14.77;;;8.02;;
22191;SDS011;11261;52.456;10.850;2023-03-21T03:15:32;11.50;;;7.43;;
22191;SDS011;11261;52.456;10.850;2023-03-21T03:18:12;13.82;;;9.32;;
22191;SDS011;11261;52.456;10.850;2023-03-21T03:20:48;13.65;;;8.15;;
22191;SDS011;11261;52.456;10.850;2023-03-21T03:23:24;11.90;;;7.60;;
22191;SDS011;11261;52.456;10.850;2023-03-21T03:25:59;12.30;;;7.35;;
22191;SDS011;11261;52.456;10.850;2023-03-21T03:28:32;12.02;;;6.95;;
22191;SDS011;11261;52.456;10.850;2023-03-21T03:31:04;11.32;;;6.95;;
22191;SDS011;11261;52.456;10.850;2023-03-21T03:33:36;12.90;;;8.27;;
22191;SDS011;11261;52.456;10.850;2023-03-21T03:36:08;14.82;;;7.40;;
22191;SDS011;11261;52.456;10.850;2023-03-21T03:38:56;14.20;;;8.10;;
22191;SDS011;11261;52.456;10.850;2023-03-21T03:41:28;11.88;;;8.27;;
22191;SDS011;11261;52.456;10.850;2023-03-21T03:44:17;13.27;;;7.35;;
22191;SDS011;11261;52.456;10.850;2023-03-21T03:46:46;12.88;;;7.50;;
22191;SDS011;11261;52.456;10.850;2023-03-21T03:49:20;11.35;;;6.82;;
22191;SDS011;11261;52.456;10.850;2023-03-21T03:51:52;13.57;;;8.15;;
22191;SDS011;11261;52.456;10.850;2023-03-21T03:54:25;14.98;;;8.57;;
22191;SDS011;11261;52.456;10.850;2023-03-21T03:56:58;10.68;;;6.75;;
22191;SDS011;11261;52.456;10.850;2023-03-21T03:59:28;14.07;;;7.25;;
22191;SDS011;11261;52.456;10.850;2023-03-21T04:01:56;13.23;;;8.68;;
22191;SDS011;11261;52.456;10.850;2023-03-21T04:04:24;12.50;;;7.35;;
22191;SDS011;11261;52.456;10.850;2023-03-21T04:06:54;16.20;;;7.88;;
22191;SDS011;11261;52.456;10.850;2023-03-21T04:09:23;16.20;;;7.80;;
22191;SDS011;11261;52.456;10.850;2023-03-21T04:12:10;16.00;;;7.65;;
22191;SDS011;11261;52.456;10.850;2023-03-21T04:14:38;11.43;;;7.05;;
22191;SDS011;11261;52.456;10.850;2023-03-21T04:17:12;12.50;;;7.70;;
22191;SDS011;11261;52.456;10.850;2023-03-21T04:19:42;13.35;;;7.93;;
22191;SDS011;11261;52.456;10.850;2023-03-21T04:22:10;14.07;;;7.95;;
22191;SDS011;11261;52.456;10.850;2023-03-21T04:24:39;15.68;;;7.85;;
22191;SDS011;11261;52.456;10.850;2023-03-21T04:27:08;12.50;;;8.15;;
22191;SDS011;11261;52.456;10.850;2023-03-21T04:29:39;15.18;;;7.32;;
22191;SDS011;11261;52.456;10.850;2023-03-21T04:32:07;14.55;;;7.57;;
22191;SDS011;11261;52.456;10.850;2023-03-21T04:34:45;12.55;;;8.23;;
22191;SDS011;11261;52.456;10.850;2023-03-21T04:37:15;13.50;;;7.47;;
22191;SDS011;11261;52.456;10.850;2023-03-21T04:39:44;15.38;;;8.52;;
22191;SDS011;11261;52.456;10.850;2023-03-21T04:42:14;12.93;;;7.75;;
22191;SDS011;11261;52.456;10.850;2023-03-21T04:44:44;15.65;;;7.68;;
22191;SDS011;11261;52.456;10.850;2023-03-21T04:47:12;14.20;;;7.57;;
22191;SDS011;11261;52.456;10.850;2023-03-21T04:49:41;14.05;;;8.23;;
22191;SDS011;11261;52.456;10.850;2023-03-21T04:52:09;14.43;;;7.63;;
22191;SDS011;11261;52.456;10.850;2023-03-21T04:54:37;17.63;;;8.80;;
22191;SDS011;11261;52.456;10.850;2023-03-21T04:57:05;14.93;;;9.02;;
22191;SDS011;11261;52.456;10.850;2023-03-21T04:59:35;14.45;;;7.03;;
22191;SDS011;11261;52.456;10.850;2023-03-21T05:02:03;19.75;;;8.77;;
22191;SDS011;11261;52.456;10.850;2023-03-21T05:04:32;10.45;;;6.88;;
22191;SDS011;11261;52.456;10.850;2023-03-21T05:07:00;13.15;;;7.65;;
22191;SDS011;11261;52.456;10.850;2023-03-21T05:09:28;15.60;;;7.32;;
22191;SDS011;11261;52.456;10.850;2023-03-21T05:11:57;16.90;;;7.70;;
22191;SDS011;11261;52.456;10.850;2023-03-21T05:14:25;14.35;;;7.65;;
22191;SDS011;11261;52.456;10.850;2023-03-21T05:16:55;8.98;;;4.50;;
22191;SDS011;11261;52.456;10.850;2023-03-21T05:19:24;13.32;;;7.63;;
22191;SDS011;11261;52.456;10.850;2023-03-21T05:22:01;10.98;;;6.13;;
22191;SDS011;11261;52.456;10.850;2023-03-21T05:24:31;16.38;;;7.60;;
22191;SDS011;11261;52.456;10.850;2023-03-21T05:27:00;15.25;;;8.00;;
22191;SDS011;11261;52.456;10.850;2023-03-21T05:29:28;14.20;;;8.02;;
22191;SDS011;11261;52.456;10.850;2023-03-21T05:32:00;14.88;;;7.47;;
22191;SDS011;11261;52.456;10.850;2023-03-21T05:34:28;12.57;;;7.38;;
22191;SDS011;11261;52.456;10.850;2023-03-21T05:36:57;16.25;;;7.90;;
22191;SDS011;11261;52.456;10.850;2023-03-21T05:39:26;15.32;;;7.93;;
22191;SDS011;11261;52.456;10.850;2023-03-21T05:41:54;15.45;;;7.28;;
22191;SDS011;11261;52.456;10.850;2023-03-21T05:44:22;18.63;;;9.18;;
22191;SDS011;11261;52.456;10.850;2023-03-21T05:46:51;17.17;;;7.93;;
22191;SDS011;11261;52.456;10.850;2023-03-21T05:49:21;15.57;;;7.50;;
22191;SDS011;11261;52.456;10.850;2023-03-21T05:51:49;13.55;;;7.63;;
22191;SDS011;11261;52.456;10.850;2023-03-21T05:54:18;15.18;;;7.15;;
22191;SDS011;11261;52.456;10.850;2023-03-21T05:56:46;11.65;;;6.75;;
22191;SDS011;11261;52.456;10.850;2023-03-21T05:59:14;14.13;;;8.07;;
22191;SDS011;11261;52.456;10.850;2023-03-21T06:01:42;12.25;;;6.50;;
22191;SDS011;11261;52.456;10.850;2023-03-21T06:04:11;14.90;;;6.85;;
22191;SDS011;11261;52.456;10.850;2023-03-21T06:06:41;17.52;;;8.18;;
22191;SDS011;11261;52.456;10.850;2023-03-21T06:09:09;12.65;;;7.55;;
22191;SDS011;11261;52.456;10.850;2023-03-21T06:11:37;14.57;;;6.28;;
22191;SDS011;11261;52.456;10.850;2023-03-21T06:14:07;11.75;;;6.50;;
22191;SDS011;11261;52.456;10.850;2023-03-21T06:16:35;14.07;;;6.90;;
22191;SDS011;11261;52.456;10.850;2023-03-21T06:19:03;14.73;;;7.30;;
22191;SDS011;11261;52.456;10.850;2023-03-21T06:21:32;10.98;;;4.63;;
22191;SDS011;11261;52.456;10.850;2023-03-21T06:24:02;14.32;;;7.13;;
22191;SDS011;11261;52.456;10.850;2023-03-21T06:26:30;10.65;;;6.18;;
22191;SDS011;11261;52.456;10.850;2023-03-21T06:28:58;12.88;;;6.68;;
22191;SDS011;11261;52.456;10.850;2023-03-21T06:31:26;15.77;;;7.70;;
22191;SDS011;11261;52.456;10.850;2023-03-21T06:33:55;13.90;;;7.78;;
22191;SDS011;11261;52.456;10.850;2023-03-21T06:36:23;15.75;;;8.38;;
22191;SDS011;11261;52.456;10.850;2023-03-21T06:38:52;12.07;;;6.25;;
22191;SDS011;11261;52.456;10.850;2023-03-21T06:41:22;13.48;;;7.28;;
22191;SDS011;11261;52.456;10.850;2023-03-21T06:43:50;14.07;;;7.53;;
22191;SDS011;11261;52.456;10.850;2023-03-21T06:46:18;10.10;;;6.15;;
22191;SDS011;11261;52.456;10.850;2023-03-21T06:48:46;14.90;;;7.43;;
22191;SDS011;11261;52.456;10.850;2023-03-21T06:51:15;13.70;;;7.18;;
22191;SDS011;11261;52.456;10.850;2023-03-21T06:53:43;14.13;;;7.75;;
22191;SDS011;11261;52.456;10.850;2023-03-21T06:56:12;13.02;;;7.28;;
22191;SDS011;11261;52.456;10.850;2023-03-21T06:58:42;12.10;;;5.57;;
22191;SDS011;11261;52.456;10.850;2023-03-21T07:01:10;15.43;;;8.00;;
22191;SDS011;11261;52.456;10.850;2023-03-21T07:03:39;13.80;;;7.32;;
22191;SDS011;11261;52.456;10.850;2023-03-21T07:06:09;15.70;;;8.93;;
22191;SDS011;11261;52.456;10.850;2023-03-21T07:08:39;16.70;;;8.85;;
22191;SDS011;11261;52.456;10.850;2023-03-21T07:11:08;16.17;;;8.55;;
22191;SDS011;11261;52.456;10.850;2023-03-21T07:13:36;19.23;;;8.13;;
22191;SDS011;11261;52.456;10.850;2023-03-21T07:16:07;15.27;;;7.53;;
22191;SDS011;11261;52.456;10.850;2023-03-21T07:18:36;13.70;;;6.43;;
22191;SDS011;11261;52.456;10.850;2023-03-21T07:21:04;15.38;;;8.32;;
22191;SDS011;11261;52.456;10.850;2023-03-21T07:23:32;15.23;;;7.68;;
22191;SDS011;11261;52.456;10.850;2023-03-21T07:26:01;13.23;;;6.63;;
22191;SDS011;11261;52.456;10.850;2023-03-21T07:28:29;6.47;;;3.45;;
22191;SDS011;11261;52.456;10.850;2023-03-21T07:30:59;10.93;;;6.38;;
22191;SDS011;11261;52.456;10.850;2023-03-21T07:33:31;9.18;;;5.65;;
22191;SDS011;11261;52.456;10.850;2023-03-21T07:35:59;16.20;;;6.07;;
22191;SDS011;11261;52.456;10.850;2023-03-21T07:38:28;14.23;;;6.75;;
22191;SDS011;11261;52.456;10.850;2023-03-21T07:40:57;12.38;;;6.95;;
22191;SDS011;11261;52.456;10.850;2023-03-21T07:43:26;8.93;;;5.63;;
22191;SDS011;11261;52.456;10.850;2023-03-21T07:45:55;13.43;;;6.25;;
22191;SDS011;11261;52.456;10.850;2023-03-21T07:48:24;13.57;;;7.03;;
22191;SDS011;11261;52.456;10.850;2023-03-21T07:50:53;11.88;;;6.60;;
22191;SDS011;11261;52.456;10.850;2023-03-21T07:53:21;11.80;;;5.80;;
22191;SDS011;11261;52.456;10.850;2023-03-21T07:55:50;14.85;;;7.30;;
22191;SDS011;11261;52.456;10.850;2023-03-21T07:58:19;12.93;;;6.78;;
22191;SDS011;11261;52.456;10.850;2023-03-21T08:00:47;13.27;;;6.35;;
22191;SDS011;11261;52.456;10.850;2023-03-21T08:03:15;10.52;;;5.05;;
22191;SDS011;11261;52.456;10.850;2023-03-21T08:05:43;12.57;;;5.78;;
22191;SDS011;11261;52.456;10.850;2023-03-21T08:08:14;12.98;;;6.45;;
22191;SDS011;11261;52.456;10.850;2023-03-21T08:10:42;13.55;;;7.15;;
22191;SDS011;11261;52.456;10.850;2023-03-21T08:13:10;12.13;;;5.75;;
22191;SDS011;11261;52.456;10.850;2023-03-21T08:15:39;10.93;;;5.25;;
22191;SDS011;11261;52.456;10.850;2023-03-21T08:18:08;7.63;;;3.15;;
22191;SDS011;11261;52.456;10.850;2023-03-21T08:20:37;15.85;;;6.28;;
22191;SDS011;11261;52.456;10.850;2023-03-21T08:23:06;12.00;;;6.35;;
22191;SDS011;11261;52.456;10.850;2023-03-21T08:25:36;12.90;;;6.90;;
22191;SDS011;11261;52.456;10.850;2023-03-21T08:28:04;16.17;;;6.57;;
22191;SDS011;11261;52.456;10.850;2023-03-21T08:30:33;14.00;;;6.03;;
22191;SDS011;11261;52.456;10.850;2023-03-21T08:33:01;9.13;;;5.43;;
22191;SDS011;11261;52.456;10.850;2023-03-21T08:35:30;12.05;;;6.00;;
22191;SDS011;11261;52.456;10.850;2023-03-21T08:38:00;12.35;;;6.32;;
22191;SDS011;11261;52.456;10.850;2023-03-21T08:40:28;14.13;;;6.43;;
22191;SDS011;11261;52.456;10.850;2023-03-21T08:42:58;11.30;;;6.35;;
22191;SDS011;11261;52.456;10.850;2023-03-21T08:45:26;11.35;;;6.30;;
22191;SDS011;11261;52.456;10.850;2023-03-21T08:47:55;11.00;;;6.28;;
22191;SDS011;11261;52.456;10.850;2023-03-21T08:50:24;14.10;;;6.53;;
22191;SDS011;11261;52.456;10.850;2023-03-21T08:52:54;14.55;;;6.97;;
22191;SDS011;11261;52.456;10.850;2023-03-21T08:55:22;12.45;;;5.10;;
22191;SDS011;11261;52.456;10.850;2023-03-21T08:57:51;10.27;;;4.68;;
22191;SDS011;11261;52.456;10.850;2023-03-21T09:00:21;19.77;;;7.10;;
22191;SDS011;11261;52.456;10.850;2023-03-21T09:02:49;12.25;;;7.22;;
22191;SDS011;11261;52.456;10.850;2023-03-21T09:05:20;11.30;;;6.25;;
22191;SDS011;11261;52.456;10.850;2023-03-21T09:07:51;12.95;;;6.43;;
22191;SDS011;11261;52.456;10.850;2023-03-21T09:10:20;11.93;;;6.07;;
22191;SDS011;11261;52.456;10.850;2023-03-21T09:12:50;15.50;;;6.82;;
22191;SDS011;11261;52.456;10.850;2023-03-21T09:15:22;18.13;;;8.00;;
22191;SDS011;11261;52.456;10.850;2023-03-21T09:17:53;14.23;;;7.38;;
22191;SDS011;11261;52.456;10.850;2023-03-21T09:20:24;17.80;;;6.53;;
22191;SDS011;11261;52.456;10.850;2023-03-21T09:22:58;12.60;;;6.20;;
22191;SDS011;11261;52.456;10.850;2023-03-21T09:25:27;17.50;;;7.25;;
22191;SDS011;11261;52.456;10.850;2023-03-21T09:27:57;14.32;;;5.90;;
22191;SDS011;11261;52.456;10.850;2023-03-21T09:30:27;17.80;;;6.32;;
22191;SDS011;11261;52.456;10.850;2023-03-21T09:32:57;6.85;;;4.03;;
22191;SDS011;11261;52.456;10.850;2023-03-21T09:35:26;11.77;;;5.57;;
22191;SDS011;11261;52.456;10.850;2023-03-21T09:37:55;12.70;;;6.20;;
22191;SDS011;11261;52.456;10.850;2023-03-21T09:40:30;12.48;;;5.78;;
22191;SDS011;11261;52.456;10.850;2023-03-21T09:43:14;15.27;;;7.57;;
22191;SDS011;11261;52.456;10.850;2023-03-21T09:45:51;14.57;;;6.70;;
22191;SDS011;11261;52.456;10.850;2023-03-21T09:48:32;10.75;;;6.82;;
22191;SDS011;11261;52.456;10.850;2023-03-21T09:51:19;12.82;;;5.22;;
22191;SDS011;11261;52.456;10.850;2023-03-21T09:53:49;11.10;;;5.45;;
22191;SDS011;11261;52.456;10.850;2023-03-21T09:56:22;14.73;;;6.35;;
22191;SDS011;11261;52.456;10.850;2023-03-21T09:58:53;5.85;;;3.63;;
22191;SDS011;11261;52.456;10.850;2023-03-21T10:01:26;8.45;;;4.30;;
22191;SDS011;11261;52.456;10.850;2023-03-21T10:03:59;13.68;;;6.00;;
22191;SDS011;11261;52.456;10.850;2023-03-21T10:06:30;14.95;;;6.07;;
22191;SDS011;11261;52.456;10.850;2023-03-21T10:09:01;14.40;;;4.97;;
22191;SDS011;11261;52.456;10.850;2023-03-21T10:11:35;10.88;;;5.57;;
22191;SDS011;11261;52.456;10.850;2023-03-21T10:14:12;12.18;;;3.13;;
22191;SDS011;11261;52.456;10.850;2023-03-21T10:16:45;7.72;;;4.45;;
22191;SDS011;11261;52.456;10.850;2023-03-21T10:19:17;11.68;;;5.68;;
22191;SDS011;11261;52.456;10.850;2023-03-21T10:21:49;15.10;;;6.05;;
22191;SDS011;11261;52.456;10.850;2023-03-21T10:24:29;10.32;;;5.22;;
22191;SDS011;11261;52.456;10.850;2023-03-21T10:27:00;9.82;;;5.07;;
22191;SDS011;11261;52.456;10.850;2023-03-21T10:29:30;10.77;;;4.53;;
22191;SDS011;11261;52.456;10.850;2023-03-21T10:32:10;12.48;;;4.97;;
22191;SDS011;11261;52.456;10.850;2023-03-21T10:34:42;11.60;;;5.55;;
22191;SDS011;11261;52.456;10.850;2023-03-21T10:37:13;8.50;;;5.20;;
22191;SDS011;11261;52.456;10.850;2023-03-21T10:39:42;12.52;;;5.43;;
22191;SDS011;11261;52.456;10.850;2023-03-21T10:42:16;15.27;;;5.95;;
22191;SDS011;11261;52.456;10.850;2023-03-21T10:44:47;11.32;;;5.35;;
22191;SDS011;11261;52.456;10.850;2023-03-21T10:47:20;8.93;;;4.28;;
22191;SDS011;11261;52.456;10.850;2023-03-21T10:49:50;10.48;;;4.88;;
22191;SDS011;11261;52.456;10.850;2023-03-21T10:52:36;12.35;;;5.15;;
22191;SDS011;11261;52.456;10.850;2023-03-21T10:55:19;9.13;;;4.32;;
22191;SDS011;11261;52.456;10.850;2023-03-21T10:57:58;9.90;;;4.28;;
22191;SDS011;11261;52.456;10.850;2023-03-21T11:00:29;9.18;;;4.70;;
22191;SDS011;11261;52.456;10.850;2023-03-21T11:03:05;10.00;;;5.03;;
22191;SDS011;11261;52.456;10.850;2023-03-21T11:05:35;11.70;;;5.13;;
22191;SDS011;11261;52.456;10.850;2023-03-21T11:08:09;10.38;;;4.18;;
22191;SDS011;11261;52.456;10.850;2023-03-21T11:10:48;11.32;;;4.70;;
22191;SDS011;11261;52.456;10.850;2023-03-21T11:13:22;12.10;;;4.93;;
22191;SDS011;11261;52.456;10.850;2023-03-21T11:15:53;12.10;;;5.20;;
22191;SDS011;11261;52.456;10.850;2023-03-21T11:18:25;13.82;;;5.35;;
22191;SDS011;11261;52.456;10.850;2023-03-21T11:20:58;10.20;;;5.47;;
22191;SDS011;11261;52.456;10.850;2023-03-21T11:23:31;11.55;;;4.28;;
22191;SDS011;11261;52.456;10.850;2023-03-21T11:26:02;10.93;;;5.93;;
22191;SDS011;11261;52.456;10.850;2023-03-21T11:28:37;12.20;;;6.05;;
22191;SDS011;11261;52.456;10.850;2023-03-21T11:31:07;18.83;;;5.47;;
22191;SDS011;11261;52.456;10.850;2023-03-21T11:33:38;13.38;;;5.80;;
22191;SDS011;11261;52.456;10.850;2023-03-21T11:36:23;7.43;;;4.20;;
22191;SDS011;11261;52.456;10.850;2023-03-21T11:39:02;11.88;;;4.72;;
22191;SDS011;11261;52.456;10.850;2023-03-21T11:41:41;10.23;;;4.53;;
22191;SDS011;11261;52.456;10.850;2023-03-21T11:44:27;10.63;;;4.43;;
22191;SDS011;11261;52.456;10.850;2023-03-21T11:46:58;11.43;;;5.55;;
22191;SDS011;11261;52.456;10.850;2023-03-21T11:49:28;10.70;;;5.07;;
22191;SDS011;11261;52.456;10.850;2023-03-21T11:52:00;14.05;;;6.35;;
22191;SDS011;11261;52.456;10.850;2023-03-21T11:54:37;12.52;;;5.68;;
22191;SDS011;11261;52.456;10.850;2023-03-21T11:57:19;10.35;;;5.60;;
22191;SDS011;11261;52.456;10.850;2023-03-21T11:59:57;10.77;;;4.78;;
22191;SDS011;11261;52.456;10.850;2023-03-21T12:02:38;10.23;;;5.43;;
22191;SDS011;11261;52.456;10.850;2023-03-21T12:05:24;10.60;;;4.72;;
22191;SDS011;11261;52.456;10.850;2023-03-21T12:07:56;14.55;;;5.88;;
22191;SDS011;11261;52.456;10.850;2023-03-21T12:10:38;10.82;;;5.30;;
22191;SDS011;11261;52.456;10.850;2023-03-21T12:13:18;10.27;;;4.93;;
22191;SDS011;11261;52.456;10.850;2023-03-21T12:16:00;8.90;;;4.28;;
22191;SDS011;11261;52.456;10.850;2023-03-21T12:21:32;13.00;;;5.93;;
22191;SDS011;11261;52.456;10.850;2023-03-21T12:24:05;9.63;;;4.60;;
22191;SDS011;11261;52.456;10.850;2023-03-21T12:26:39;11.18;;;5.47;;
22191;SDS011;11261;52.456;10.850;2023-03-21T12:32:20;10.00;;;4.90;;
22191;SDS011;11261;52.456;10.850;2023-03-21T12:35:04;12.32;;;5.43;;
22191;SDS011;11261;52.456;10.850;2023-03-21T12:37:39;5.07;;;2.65;;
22191;SDS011;11261;52.456;10.850;2023-03-21T12:40:26;9.55;;;4.72;;
22191;SDS011;11261;52.456;10.850;2023-03-21T12:43:21;8.57;;;3.65;;
22191;SDS011;11261;52.456;10.850;2023-03-21T12:46:08;7.70;;;4.40;;
22191;SDS011;11261;52.456;10.850;2023-03-21T12:48:41;12.43;;;5.47;;
22191;SDS011;11261;52.456;10.850;2023-03-21T12:51:13;11.18;;;4.63;;
22191;SDS011;11261;52.456;10.850;2023-03-21T12:53:52;12.52;;;5.22;;
22191;SDS011;11261;52.456;10.850;2023-03-21T12:56:28;11.05;;;5.32;;
22191;SDS011;11261;52.456;10.850;2023-03-21T12:59:01;10.18;;;4.07;;
22191;SDS011;11261;52.456;10.850;2023-03-21T13:01:34;7.10;;;4.35;;
22191;SDS011;11261;52.456;10.850;2023-03-21T13:04:07;9.73;;;4.68;;
22191;SDS011;11261;52.456;10.850;2023-03-21T13:07:00;11.82;;;4.85;;
22191;SDS011;11261;52.456;10.850;2023-03-21T13:09:32;7.97;;;4.20;;
22191;SDS011;11261;52.456;10.850;2023-03-21T13:12:05;7.13;;;4.22;;
22191;SDS011;11261;52.456;10.850;2023-03-21T13:14:48;10.48;;;3.83;;
22191;SDS011;11261;52.456;10.850;2023-03-21T13:17:26;8.60;;;4.65;;
22191;SDS011;11261;52.456;10.850;2023-03-21T13:20:00;9.27;;;4.50;;
22191;SDS011;11261;52.456;10.850;2023-03-21T13:22:36;12.63;;;3.88;;
22191;SDS011;11261;52.456;10.850;2023-03-21T13:25:14;7.30;;;3.95;;
22191;SDS011;11261;52.456;10.850;2023-03-21T13:27:49;9.38;;;4.10;;
22191;SDS011;11261;52.456;10.850;2023-03-21T13:30:20;7.38;;;3.13;;
22191;SDS011;11261;52.456;10.850;2023-03-21T13:32:54;7.47;;;3.65;;
22191;SDS011;11261;52.456;10.850;2023-03-21T13:35:34;9.02;;;4.85;;
22191;SDS011;11261;52.456;10.850;2023-03-21T13:38:09;8.80;;;4.45;;
22191;SDS011;11261;52.456;10.850;2023-03-21T13:40:44;2.63;;;1.85;;
22191;SDS011;11261;52.456;10.850;2023-03-21T13:46:07;9.55;;;5.18;;
22191;SDS011;11261;52.456;10.850;2023-03-21T13:48:41;8.35;;;5.03;;
22191;SDS011;11261;52.456;10.850;2023-03-21T13:51:42;6.97;;;4.32;;
22191;SDS011;11261;52.456;10.850;2023-03-21T13:54:17;10.30;;;4.95;;
22191;SDS011;11261;52.456;10.850;2023-03-21T13:56:55;10.30;;;5.00;;
22191;SDS011;11261;52.456;10.850;2023-03-21T13:59:37;9.93;;;5.47;;
22191;SDS011;11261;52.456;10.850;2023-03-21T14:02:21;10.57;;;5.30;;
22191;SDS011;11261;52.456;10.850;2023-03-21T14:04:55;13.48;;;5.72;;
22191;SDS011;11261;52.456;10.850;2023-03-21T14:07:32;12.88;;;5.47;;
22191;SDS011;11261;52.456;10.850;2023-03-21T14:10:03;10.02;;;5.30;;
22191;SDS011;11261;52.456;10.850;2023-03-21T14:12:38;10.32;;;5.75;;
22191;SDS011;11261;52.456;10.850;2023-03-21T14:15:12;10.65;;;5.50;;
22191;SDS011;11261;52.456;10.850;2023-03-21T14:17:49;12.30;;;5.20;;
22191;SDS011;11261;52.456;10.850;2023-03-21T14:20:20;11.57;;;5.68;;
22191;SDS011;11261;52.456;10.850;2023-03-21T14:22:50;15.88;;;5.43;;
22191;SDS011;11261;52.456;10.850;2023-03-21T14:25:19;11.90;;;5.55;;
22191;SDS011;11261;52.456;10.850;2023-03-21T14:27:56;9.93;;;5.28;;
22191;SDS011;11261;52.456;10.850;2023-03-21T14:30:27;8.82;;;4.65;;
22191;SDS011;11261;52.456;10.850;2023-03-21T14:32:59;8.57;;;4.82;;
22191;SDS011;11261;52.456;10.850;2023-03-21T14:35:34;12.23;;;5.35;;
22191;SDS011;11261;52.456;10.850;2023-03-21T14:38:04;14.57;;;5.63;;
22191;SDS011;11261;52.456;10.850;2023-03-21T14:40:34;10.15;;;5.68;;
22191;SDS011;11261;52.456;10.850;2023-03-21T14:43:05;13.23;;;6.43;;
22191;SDS011;11261;52.456;10.850;2023-03-21T14:45:34;12.07;;;6.20;;
22191;SDS011;11261;52.456;10.850;2023-03-21T14:48:04;10.20;;;5.20;;
22191;SDS011;11261;52.456;10.850;2023-03-21T14:50:36;12.25;;;5.88;;
22191;SDS011;11261;52.456;10.850;2023-03-21T14:53:10;9.38;;;5.65;;
22191;SDS011;11261;52.456;10.850;2023-03-21T14:55:43;12.63;;;6.20;;
22191;SDS011;11261;52.456;10.850;2023-03-21T14:58:15;10.40;;;5.05;;
22191;SDS011;11261;52.456;10.850;2023-03-21T15:00:46;11.63;;;5.75;;
22191;SDS011;11261;52.456;10.850;2023-03-21T15:03:16;14.05;;;5.88;;
22191;SDS011;11261;52.456;10.850;2023-03-21T15:05:45;10.48;;;5.25;;
22191;SDS011;11261;52.456;10.850;2023-03-21T15:08:14;9.65;;;5.78;;
22191;SDS011;11261;52.456;10.850;2023-03-21T15:10:52;11.02;;;5.18;;